Veronica — IFNU — position and weather

sailwx.info

Track history (hours):
 
Tides and Currents Weather Stations Pressure Air Temp Water Temp Dewpoint Dewpoint Depression Visibility Wind Speed Wind Dir Waves Ship Positions

Veronica

Last reported at 2017-Jun-16 07:08 UTC. Time now 2017-Jun-27 21:01 UTC.
Position N 38°47' E 008°10'.
Warning: this ship's position is 11 days out of date.

Length 30 m.

Type: Fishing. MMSI: 247151990.

Date/timePositionNaut miles runAvg speedWind from/ knotsBaromVisibWave heightAir tempDewpointWater temp
2017-Jun-16 07:08N 38°47' E 008°10'1 2.5
2017-Jun-16 06:37N 38°46' E 008°11'1 2.5
2017-Jun-16 06:21N 38°46' E 008°11'1 2.5
2017-Jun-16 05:59N 38°45' E 008°12'2 2.5
2017-Jun-16 05:22N 38°44' E 008°14'1 2.5
2017-Jun-16 04:57N 38°44' E 008°15'1 2.6
2017-Jun-16 04:28N 38°43' E 008°17'2 4.0
2017-Jun-16 03:59N 38°43' E 008°19'5 8.5
2017-Jun-16 03:26N 38°47' E 008°19'4 8.5
2017-Jun-16 02:58N 38°51' E 008°20'4 8.4
2017-Jun-16 02:28N 38°56' E 008°19'4 8.4
2017-Jun-16 01:59N 38°60' E 008°20'5 8.9
2017-Jun-16 01:27N 39°04' E 008°20'3 5.1
2017-Jun-16 00:50N 39°07' E 008°22'0 0.0
2017-Jun-16 00:25N 39°07' E 008°22'0 0.0
2017-Jun-15 23:55N 39°07' E 008°22'0 0.0
2017-Jun-15 23:14N 39°07' E 008°22'0 0.0
2017-Jun-15 22:52N 39°07' E 008°22'0 0.0
2017-Jun-15 22:22N 39°07' E 008°22'0 0.0
2017-Jun-15 22:00N 39°07' E 008°22'0 0.0
2017-Jun-15 21:28N 39°07' E 008°22'0 0.0
2017-Jun-15 21:00N 39°07' E 008°22'0 0.0
2017-Jun-15 20:24N 39°07' E 008°22'4 9.3
2017-Jun-15 19:58N 39°11' E 008°21'610.5
2017-Jun-15 19:25N 39°16' E 008°17'510.4
2017-Jun-15 18:57N 39°20' E 008°14'510.6
2017-Jun-15 18:30N 39°24' E 008°10'710.7
2017-Jun-15 17:50N 39°30' E 008°06'2 6.6
2017-Jun-15 17:30N 39°32' E 008°05'3 1.7
2017-Jun-15 15:46N 39°32' E 008°01'1 2.6
2017-Jun-15 15:19N 39°31' E 007°60'2 2.6
2017-Jun-15 14:21N 39°30' E 007°57'2 2.6
2017-Jun-15 13:30N 39°29' E 007°55'1 2.5
2017-Jun-15 12:55N 39°28' E 007°53'2 2.4
2017-Jun-15 12:07N 39°27' E 007°51'1 4.7
2017-Jun-15 11:52N 39°26' E 007°50'0 0.5
2017-Jun-15 11:06N 39°26' E 007°49'0 2.5
2017-Jun-15 10:56N 39°26' E 007°50'3 2.5
2017-Jun-15 09:36N 39°30' E 007°50'0 2.5
2017-Jun-15 09:28N 39°30' E 007°50'1 2.4
2017-Jun-15 08:58N 39°31' E 007°52'1 2.4
2017-Jun-15 08:30N 39°31' E 007°53'1 2.4
2017-Jun-15 07:56N 39°32' E 007°55'1 2.4
2017-Jun-15 07:28N 39°32' E 007°56'1 2.4
2017-Jun-15 06:59N 39°33' E 007°57'1 2.4
2017-Jun-15 06:30N 39°34' E 007°59'3 2.3
2017-Jun-15 05:23N 39°33' E 008°02'1 2.4
2017-Jun-15 04:53N 39°33' E 008°03'1 2.5
2017-Jun-15 04:26N 39°32' E 008°05'4 7.2
2017-Jun-15 03:51N 39°31' E 008°10'410.1
2017-Jun-15 03:25N 39°30' E 008°15'9 2.7
2017-Jun-14 23:56N 39°34' E 008°25'0 0.9
2017-Jun-14 23:29N 39°34' E 008°25'3 2.7
2017-Jun-14 22:19N 39°31' E 008°23'1 2.5
2017-Jun-14 21:55N 39°31' E 008°23'1 2.6
2017-Jun-14 21:26N 39°29' E 008°22'6 6.7
2017-Jun-14 20:34N 39°30' E 008°15'110.3
2017-Jun-14 20:29N 39°30' E 008°14'510.1
2017-Jun-14 19:59N 39°31' E 008°07'5 9.5
2017-Jun-14 19:28N 39°33' E 008°01'1 1.0
2017-Jun-14 18:55N 39°33' E 008°02'1 2.7
2017-Jun-14 18:30N 39°34' E 008°01'1 2.5
2017-Jun-14 18:00N 39°33' E 007°59'2 2.4
2017-Jun-14 17:18N 39°32' E 007°57'4 1.2
2017-Jun-14 13:48N 39°31' E 007°52'1 2.5
2017-Jun-14 13:29N 39°30' E 007°51'1 1.5
2017-Jun-14 12:49N 39°30' E 007°50'510.3
2017-Jun-14 12:18N 39°32' E 007°57'2 6.3
2017-Jun-14 11:59N 39°32' E 007°59'9 1.9
2017-Jun-14 07:22N 39°27' E 007°50'1 2.5
2017-Jun-14 06:55N 39°26' E 007°50'2 2.5
2017-Jun-14 06:06N 39°24' E 007°50'0 2.5
2017-Jun-14 05:57N 39°24' E 007°50'2 2.5
2017-Jun-14 05:19N 39°22' E 007°50'2 2.6
2017-Jun-14 04:40N 39°21' E 007°49'1 2.4
2017-Jun-14 04:20N 39°20' E 007°49'3 6.2
2017-Jun-14 03:55N 39°18' E 007°52'510.6
2017-Jun-14 03:28N 39°17' E 007°58'610.1
2017-Jun-14 02:55N 39°16' E 008°05'410.1
2017-Jun-14 02:30N 39°15' E 008°10'610.3
2017-Jun-14 01:54N 39°13' E 008°18'4 9.7
2017-Jun-14 01:27N 39°10' E 008°21'3 7.2
2017-Jun-14 00:59N 39°07' E 008°22'0 0.0
2017-Jun-14 00:26N 39°07' E 008°22'0 0.0
2017-Jun-13 23:36N 39°07' E 008°22'0 0.0
2017-Jun-13 23:28N 39°07' E 008°22'0 0.0
2017-Jun-13 22:47N 39°07' E 008°22'0 0.0
2017-Jun-13 22:23N 39°07' E 008°22'0 0.0
2017-Jun-13 21:37N 39°07' E 008°22'0 0.0
2017-Jun-13 21:29N 39°07' E 008°22'0 0.3
2017-Jun-13 20:00N 39°07' E 008°22'5 9.5
2017-Jun-13 19:29N 39°05' E 008°17'510.0
2017-Jun-13 19:00N 39°07' E 008°11'610.4
2017-Jun-13 18:26N 39°11' E 008°06'3 7.0
2017-Jun-13 18:00N 39°14' E 008°03'1 1.1
2017-Jun-13 17:26N 39°14' E 008°04'1 2.7
2017-Jun-13 17:00N 39°15' E 008°05'2 2.6
2017-Jun-13 16:24N 39°16' E 008°06'3 2.5
2017-Jun-13 15:18N 39°19' E 008°07'1 2.6
2017-Jun-13 15:00N 39°20' E 008°08'4 2.6
2017-Jun-13 13:36N 39°23' E 008°09'0 2.7
2017-Jun-13 13:28N 39°24' E 008°09'3 5.7
2017-Jun-13 12:56N 39°26' E 008°07'510.9
2017-Jun-13 12:27N 39°30' E 008°03'4 8.4
2017-Jun-13 12:00N 39°33' E 007°59'9 1.9
2017-Jun-13 07:20N 39°27' E 007°50'1 2.5
2017-Jun-13 06:53N 39°26' E 007°50'1 2.6
2017-Jun-13 06:26N 39°25' E 007°49'2 2.5
2017-Jun-13 05:50N 39°23' E 007°50'1 2.5
2017-Jun-13 05:29N 39°22' E 007°50'2 2.4
2017-Jun-13 04:50N 39°21' E 007°49'1 2.4
2017-Jun-13 04:25N 39°20' E 007°49'2 4.3
2017-Jun-13 03:59N 39°18' E 007°50'610.3
2017-Jun-13 03:25N 39°17' E 007°57'510.1
2017-Jun-13 02:55N 39°16' E 008°04'4 9.9
2017-Jun-13 02:30N 39°15' E 008°09'610.1
2017-Jun-13 01:55N 39°14' E 008°16'4 9.5
2017-Jun-13 01:28N 39°11' E 008°21'4 8.2
2017-Jun-13 00:55N 39°07' E 008°22'0 0.0
2017-Jun-13 00:29N 39°07' E 008°22'0 0.0
2017-Jun-12 23:48N 39°07' E 008°22'0 0.0
2017-Jun-12 23:23N 39°07' E 008°22'0 0.0
2017-Jun-12 22:56N 39°07' E 008°22'0 0.0
2017-Jun-12 22:26N 39°07' E 008°22'0 0.0
2017-Jun-12 21:55N 39°07' E 008°22'0 0.0
2017-Jun-12 21:27N 39°07' E 008°22'0 0.0
2017-Jun-12 20:58N 39°07' E 008°22'1 1.3
2017-Jun-12 20:30N 39°07' E 008°22'810.1
2017-Jun-12 19:42N 39°02' E 008°14'310.2
2017-Jun-12 19:24N 39°00' E 008°11'610.5
2017-Jun-12 18:48N 38°56' E 008°04'4 7.2
2017-Jun-12 18:12N 38°54' E 007°60'0 1.2
2017-Jun-12 17:55N 38°54' E 007°59'3 2.2
2017-Jun-12 16:45N 38°52' E 008°02'8 2.4
2017-Jun-12 13:10N 38°47' E 008°10'0 0.2
2017-Jun-12 12:47N 38°47' E 008°10'4 2.5
2017-Jun-12 11:10N 38°45' E 008°14'1 2.5
2017-Jun-12 10:46N 38°44' E 008°16'4 0.9
2017-Jun-12 06:28N 38°48' E 008°16'4 2.7
2017-Jun-12 05:10N 38°51' E 008°13'1 2.7
2017-Jun-12 04:53N 38°51' E 008°12'2 2.7
2017-Jun-12 04:17N 38°52' E 008°11'1 3.5
2017-Jun-12 03:59N 38°53' E 008°10'3 5.7
2017-Jun-12 03:26N 38°56' E 008°12'4 6.8
2017-Jun-12 02:53N 38°59' E 008°14'3 6.8
2017-Jun-12 02:27N 39°01' E 008°16'3 7.2
2017-Jun-12 02:00N 39°04' E 008°19'4 7.2
2017-Jun-12 01:29N 39°07' E 008°22'  
2017-Jun-09 19:23N 39°07' E 008°22'3 7.7
2017-Jun-09 19:00N 39°10' E 008°22'510.2
2017-Jun-09 18:29N 39°14' E 008°17'810.2
2017-Jun-09 17:45N 39°20' E 008°12'310.5
2017-Jun-09 17:25N 39°23' E 008°09'510.5
2017-Jun-09 16:55N 39°27' E 008°05'5 5.4
2017-Jun-09 16:05N 39°31' E 008°03'0 1.4
2017-Jun-09 15:50N 39°31' E 008°03'1 2.8
2017-Jun-09 15:26N 39°32' E 008°03'1 2.6
2017-Jun-09 14:57N 39°33' E 008°02'2 2.5
2017-Jun-09 14:17N 39°34' E 008°00'2 2.4
2017-Jun-09 13:14N 39°33' E 007°57'1 2.5
2017-Jun-09 12:54N 39°32' E 007°56'1 2.4
2017-Jun-09 12:30N 39°31' E 007°56'0 0.2
2017-Jun-09 10:39N 39°31' E 007°55'1 1.4
2017-Jun-09 10:10N 39°32' E 007°56'2 2.6
2017-Jun-09 09:30N 39°31' E 007°54'2 2.5
2017-Jun-09 08:47N 39°31' E 007°52'1 2.5
2017-Jun-09 08:23N 39°30' E 007°51'1 2.5
2017-Jun-09 07:55N 39°29' E 007°50'1 2.5
2017-Jun-09 07:30N 39°28' E 007°50'1 2.5
2017-Jun-09 06:55N 39°26' E 007°50'1 2.5
2017-Jun-09 06:30N 39°25' E 007°50'1 2.5
2017-Jun-09 05:59N 39°24' E 007°50'1 2.5
2017-Jun-09 05:29N 39°23' E 007°50'3 2.5
2017-Jun-09 04:15N 39°20' E 007°49'2 5.9
2017-Jun-09 03:57N 39°18' E 007°50'510.0
2017-Jun-09 03:24N 39°17' E 007°57'510.0
2017-Jun-09 02:55N 39°16' E 008°03'610.2
2017-Jun-09 02:18N 39°14' E 008°11'310.4
2017-Jun-09 02:00N 39°14' E 008°15'6 9.4
2017-Jun-09 01:19N 39°10' E 008°22'3 3.0
2017-Jun-09 00:21N 39°07' E 008°22'0 0.0
2017-Jun-08 23:51N 39°07' E 008°22'0 0.0
2017-Jun-08 23:27N 39°07' E 008°22'0 0.0
2017-Jun-08 22:57N 39°07' E 008°22'0 0.0
2017-Jun-08 22:27N 39°07' E 008°22'0 0.0
2017-Jun-08 21:47N 39°07' E 008°22'0 0.0
2017-Jun-08 21:28N 39°07' E 008°22'0 0.0
2017-Jun-08 20:57N 39°07' E 008°22'1 1.5
2017-Jun-08 20:29N 39°07' E 008°22'5 9.7
2017-Jun-08 19:59N 39°03' E 008°20'510.1
2017-Jun-08 19:28N 38°57' E 008°19'5 9.9
2017-Jun-08 18:59N 38°53' E 008°19'11 8.9
2017-Jun-08 17:47N 38°42' E 008°18'1 1.4
2017-Jun-08 17:24N 38°42' E 008°19'1 2.2
2017-Jun-08 16:57N 38°42' E 008°18'2 2.4
2017-Jun-08 16:19N 38°43' E 008°16'1 2.5
2017-Jun-08 16:00N 38°43' E 008°15'1 2.4
2017-Jun-08 15:28N 38°44' E 008°14'1 2.4
2017-Jun-08 14:59N 38°44' E 008°12'1 2.4
2017-Jun-08 14:25N 38°45' E 008°11'2 2.4
2017-Jun-08 13:30N 38°46' E 008°09'3 2.4
2017-Jun-08 12:28N 38°49' E 008°08'1 2.5
2017-Jun-08 11:53N 38°50' E 008°07'1 2.5
2017-Jun-08 11:30N 38°51' E 008°07'1 1.7
2017-Jun-08 10:52N 38°51' E 008°05'0 1.0
2017-Jun-08 10:27N 38°52' E 008°05'0 0.6
2017-Jun-08 09:59N 38°52' E 008°06'1 2.5
2017-Jun-08 09:30N 38°51' E 008°07'1 2.5
2017-Jun-08 09:00N 38°50' E 008°07'1 2.4
2017-Jun-08 08:30N 38°48' E 008°08'1 2.5
2017-Jun-08 07:59N 38°47' E 008°08'1 2.5
2017-Jun-08 07:30N 38°47' E 008°10'1 2.5
2017-Jun-08 06:57N 38°46' E 008°11'1 2.4
2017-Jun-08 06:29N 38°45' E 008°12'2 2.4
2017-Jun-08 05:50N 38°44' E 008°14'1 2.4
2017-Jun-08 05:28N 38°44' E 008°15'1 2.4
2017-Jun-08 04:56N 38°43' E 008°16'1 2.5
2017-Jun-08 04:21N 38°43' E 008°18'1 3.6
2017-Jun-08 04:00N 38°42' E 008°19'4 7.2
2017-Jun-08 03:30N 38°46' E 008°19'4 8.9
2017-Jun-08 03:00N 38°50' E 008°19'4 9.0
2017-Jun-08 02:30N 38°54' E 008°19'5 9.2
2017-Jun-08 02:00N 38°59' E 008°19'5 9.4
2017-Jun-08 01:29N 39°04' E 008°20'4 8.1
2017-Jun-08 01:00N 39°07' E 008°23'0 0.4
2017-Jun-08 00:25N 39°07' E 008°22'0 0.0
2017-Jun-08 00:00N 39°07' E 008°22'0 0.0
2017-Jun-07 23:30N 39°07' E 008°22'0 0.0
2017-Jun-07 23:00N 39°07' E 008°22'0 0.0
2017-Jun-07 22:29N 39°07' E 008°22'0 0.0
2017-Jun-07 22:00N 39°07' E 008°22'0 0.0
2017-Jun-07 21:26N 39°07' E 008°22'0 0.9
2017-Jun-07 21:00N 39°07' E 008°22'4 8.2
2017-Jun-07 20:28N 39°03' E 008°20'4 9.3
2017-Jun-07 20:00N 38°59' E 008°22'5 9.2
2017-Jun-07 19:25N 38°55' E 008°26'4 9.4
2017-Jun-07 18:57N 38°52' E 008°30'1 0.2
2017-Jun-07 13:44N 38°51' E 008°31'1 2.6
2017-Jun-07 13:24N 38°52' E 008°30'1 2.5
2017-Jun-07 13:00N 38°53' E 008°29'2 3.3
2017-Jun-07 12:29N 38°54' E 008°28'1 2.3
2017-Jun-07 11:59N 38°53' E 008°28'2 2.4
2017-Jun-07 11:17N 38°51' E 008°29'1 2.4
2017-Jun-07 10:59N 38°51' E 008°29'1 2.4
2017-Jun-07 10:28N 38°50' E 008°30'3 0.6
2017-Jun-07 06:07N 38°48' E 008°32'1 2.6
2017-Jun-07 05:45N 38°48' E 008°32'1 2.6
2017-Jun-07 05:29N 38°49' E 008°31'1 2.5
2017-Jun-07 05:00N 38°50' E 008°30'1 2.5
2017-Jun-07 04:30N 38°51' E 008°29'1 2.5
2017-Jun-07 03:57N 38°52' E 008°28'1 2.5
2017-Jun-07 03:29N 38°53' E 008°28'5 8.5
2017-Jun-07 02:57N 38°56' E 008°24'4 6.9
2017-Jun-07 02:26N 38°59' E 008°21'3 6.9
2017-Jun-07 01:59N 39°02' E 008°20'4 7.0
2017-Jun-07 01:25N 39°06' E 008°21'2 3.5
2017-Jun-07 00:59N 39°07' E 008°22'0 0.0
2017-Jun-07 00:17N 39°07' E 008°22'0 0.0
2017-Jun-06 23:58N 39°07' E 008°22'0 0.0
2017-Jun-06 23:30N 39°07' E 008°22'0 0.0
2017-Jun-06 22:56N 39°07' E 008°22'0 0.0
2017-Jun-06 22:30N 39°07' E 008°22'0 0.0
2017-Jun-06 22:00N 39°07' E 008°22'0 0.0
2017-Jun-06 21:30N 39°07' E 008°22'0 0.0
2017-Jun-06 21:00N 39°07' E 008°22'0 0.2
2017-Jun-06 20:30N 39°07' E 008°23'4 7.1
2017-Jun-06 19:57N 39°04' E 008°20'5 9.5
2017-Jun-06 19:27N 38°59' E 008°19'5 9.3
2017-Jun-06 18:58N 38°55' E 008°18'5 8.9
2017-Jun-06 18:28N 38°50' E 008°18'5 8.9
2017-Jun-06 17:53N 38°45' E 008°18'3 7.2
2017-Jun-06 17:30N 38°42' E 008°18'2 1.3
2017-Jun-06 16:15N 38°43' E 008°16'1 2.4
2017-Jun-06 15:58N 38°44' E 008°15'1 2.4
2017-Jun-06 15:29N 38°44' E 008°14'1 2.4
2017-Jun-06 15:00N 38°45' E 008°13'1 2.5
2017-Jun-06 14:28N 38°45' E 008°11'2 2.5
2017-Jun-06 13:28N 38°47' E 008°09'1 2.5
2017-Jun-06 12:59N 38°48' E 008°08'1 2.4
2017-Jun-06 12:29N 38°49' E 008°07'1 2.4
2017-Jun-06 11:52N 38°50' E 008°07'1 2.6
2017-Jun-06 11:22N 38°52' E 008°06'1 2.1
2017-Jun-06 11:00N 38°51' E 008°05'1 1.1
2017-Jun-06 10:29N 38°52' E 008°05'1 1.5
2017-Jun-06 10:00N 38°52' E 008°06'1 2.4
2017-Jun-06 09:30N 38°51' E 008°07'1 2.4
2017-Jun-06 08:54N 38°49' E 008°07'1 2.4
2017-Jun-06 08:27N 38°48' E 008°08'1 2.4
2017-Jun-06 07:59N 38°47' E 008°09'1 2.4
2017-Jun-06 07:30N 38°47' E 008°10'  
Track history (hours):
 
Tides and Currents Weather Stations Pressure Air Temp Water Temp Dewpoint Dewpoint Depression Visibility Wind Speed Wind Dir Waves Ship Positions

Veronica

Last reported at 2017-Jun-16 07:08 UTC. Time now 2017-Jun-27 21:01 UTC.
Position N 38°47' E 008°10'.
Warning: this ship's position is 11 days out of date.

Length 30 m.

Type: Fishing. MMSI: 247151990.

Date/timePositionNaut miles runAvg speedWind from/ knotsBaromVisibWave heightAir tempDewpointWater temp
2017-Jun-16 07:08N 38°47' E 008°10'1 2.5
2017-Jun-16 06:37N 38°46' E 008°11'1 2.5
2017-Jun-16 06:21N 38°46' E 008°11'1 2.5
2017-Jun-16 05:59N 38°45' E 008°12'2 2.5
2017-Jun-16 05:22N 38°44' E 008°14'1 2.5
2017-Jun-16 04:57N 38°44' E 008°15'1 2.6
2017-Jun-16 04:28N 38°43' E 008°17'2 4.0
2017-Jun-16 03:59N 38°43' E 008°19'5 8.5
2017-Jun-16 03:26N 38°47' E 008°19'4 8.5
2017-Jun-16 02:58N 38°51' E 008°20'4 8.4
2017-Jun-16 02:28N 38°56' E 008°19'4 8.4
2017-Jun-16 01:59N 38°60' E 008°20'5 8.9
2017-Jun-16 01:27N 39°04' E 008°20'3 5.1
2017-Jun-16 00:50N 39°07' E 008°22'0 0.0
2017-Jun-16 00:25N 39°07' E 008°22'0 0.0
2017-Jun-15 23:55N 39°07' E 008°22'0 0.0
2017-Jun-15 23:14N 39°07' E 008°22'0 0.0
2017-Jun-15 22:52N 39°07' E 008°22'0 0.0
2017-Jun-15 22:22N 39°07' E 008°22'0 0.0
2017-Jun-15 22:00N 39°07' E 008°22'0 0.0
2017-Jun-15 21:28N 39°07' E 008°22'0 0.0
2017-Jun-15 21:00N 39°07' E 008°22'0 0.0
2017-Jun-15 20:24N 39°07' E 008°22'4 9.3
2017-Jun-15 19:58N 39°11' E 008°21'610.5
2017-Jun-15 19:25N 39°16' E 008°17'510.4
2017-Jun-15 18:57N 39°20' E 008°14'510.6
2017-Jun-15 18:30N 39°24' E 008°10'710.7
2017-Jun-15 17:50N 39°30' E 008°06'2 6.6
2017-Jun-15 17:30N 39°32' E 008°05'3 1.7
2017-Jun-15 15:46N 39°32' E 008°01'1 2.6
2017-Jun-15 15:19N 39°31' E 007°60'2 2.6
2017-Jun-15 14:21N 39°30' E 007°57'2 2.6
2017-Jun-15 13:30N 39°29' E 007°55'1 2.5
2017-Jun-15 12:55N 39°28' E 007°53'2 2.4
2017-Jun-15 12:07N 39°27' E 007°51'1 4.7
2017-Jun-15 11:52N 39°26' E 007°50'0 0.5
2017-Jun-15 11:06N 39°26' E 007°49'0 2.5
2017-Jun-15 10:56N 39°26' E 007°50'3 2.5
2017-Jun-15 09:36N 39°30' E 007°50'0 2.5
2017-Jun-15 09:28N 39°30' E 007°50'1 2.4
2017-Jun-15 08:58N 39°31' E 007°52'1 2.4
2017-Jun-15 08:30N 39°31' E 007°53'1 2.4
2017-Jun-15 07:56N 39°32' E 007°55'1 2.4
2017-Jun-15 07:28N 39°32' E 007°56'1 2.4
2017-Jun-15 06:59N 39°33' E 007°57'1 2.4
2017-Jun-15 06:30N 39°34' E 007°59'3 2.3
2017-Jun-15 05:23N 39°33' E 008°02'1 2.4
2017-Jun-15 04:53N 39°33' E 008°03'1 2.5
2017-Jun-15 04:26N 39°32' E 008°05'4 7.2
2017-Jun-15 03:51N 39°31' E 008°10'410.1
2017-Jun-15 03:25N 39°30' E 008°15'9 2.7
2017-Jun-14 23:56N 39°34' E 008°25'0 0.9
2017-Jun-14 23:29N 39°34' E 008°25'3 2.7
2017-Jun-14 22:19N 39°31' E 008°23'1 2.5
2017-Jun-14 21:55N 39°31' E 008°23'1 2.6
2017-Jun-14 21:26N 39°29' E 008°22'6 6.7
2017-Jun-14 20:34N 39°30' E 008°15'110.3
2017-Jun-14 20:29N 39°30' E 008°14'510.1
2017-Jun-14 19:59N 39°31' E 008°07'5 9.5
2017-Jun-14 19:28N 39°33' E 008°01'1 1.0
2017-Jun-14 18:55N 39°33' E 008°02'1 2.7
2017-Jun-14 18:30N 39°34' E 008°01'1 2.5
2017-Jun-14 18:00N 39°33' E 007°59'2 2.4
2017-Jun-14 17:18N 39°32' E 007°57'4 1.2
2017-Jun-14 13:48N 39°31' E 007°52'1 2.5
2017-Jun-14 13:29N 39°30' E 007°51'1 1.5
2017-Jun-14 12:49N 39°30' E 007°50'510.3
2017-Jun-14 12:18N 39°32' E 007°57'2 6.3
2017-Jun-14 11:59N 39°32' E 007°59'9 1.9
2017-Jun-14 07:22N 39°27' E 007°50'1 2.5
2017-Jun-14 06:55N 39°26' E 007°50'2 2.5
2017-Jun-14 06:06N 39°24' E 007°50'0 2.5
2017-Jun-14 05:57N 39°24' E 007°50'2 2.5
2017-Jun-14 05:19N 39°22' E 007°50'2 2.6
2017-Jun-14 04:40N 39°21' E 007°49'1 2.4
2017-Jun-14 04:20N 39°20' E 007°49'3 6.2
2017-Jun-14 03:55N 39°18' E 007°52'510.6
2017-Jun-14 03:28N 39°17' E 007°58'610.1
2017-Jun-14 02:55N 39°16' E 008°05'410.1
2017-Jun-14 02:30N 39°15' E 008°10'610.3
2017-Jun-14 01:54N 39°13' E 008°18'4 9.7
2017-Jun-14 01:27N 39°10' E 008°21'3 7.2
2017-Jun-14 00:59N 39°07' E 008°22'0 0.0
2017-Jun-14 00:26N 39°07' E 008°22'0 0.0
2017-Jun-13 23:36N 39°07' E 008°22'0 0.0
2017-Jun-13 23:28N 39°07' E 008°22'0 0.0
2017-Jun-13 22:47N 39°07' E 008°22'0 0.0
2017-Jun-13 22:23N 39°07' E 008°22'0 0.0
2017-Jun-13 21:37N 39°07' E 008°22'0 0.0
2017-Jun-13 21:29N 39°07' E 008°22'0 0.3
2017-Jun-13 20:00N 39°07' E 008°22'5 9.5
2017-Jun-13 19:29N 39°05' E 008°17'510.0
2017-Jun-13 19:00N 39°07' E 008°11'610.4
2017-Jun-13 18:26N 39°11' E 008°06'3 7.0
2017-Jun-13 18:00N 39°14' E 008°03'1 1.1
2017-Jun-13 17:26N 39°14' E 008°04'1 2.7
2017-Jun-13 17:00N 39°15' E 008°05'2 2.6
2017-Jun-13 16:24N 39°16' E 008°06'3 2.5
2017-Jun-13 15:18N 39°19' E 008°07'1 2.6
2017-Jun-13 15:00N 39°20' E 008°08'4 2.6
2017-Jun-13 13:36N 39°23' E 008°09'0 2.7
2017-Jun-13 13:28N 39°24' E 008°09'3 5.7
2017-Jun-13 12:56N 39°26' E 008°07'510.9
2017-Jun-13 12:27N 39°30' E 008°03'4 8.4
2017-Jun-13 12:00N 39°33' E 007°59'9 1.9
2017-Jun-13 07:20N 39°27' E 007°50'1 2.5
2017-Jun-13 06:53N 39°26' E 007°50'1 2.6
2017-Jun-13 06:26N 39°25' E 007°49'2 2.5
2017-Jun-13 05:50N 39°23' E 007°50'1 2.5
2017-Jun-13 05:29N 39°22' E 007°50'2 2.4
2017-Jun-13 04:50N 39°21' E 007°49'1 2.4
2017-Jun-13 04:25N 39°20' E 007°49'2 4.3
2017-Jun-13 03:59N 39°18' E 007°50'610.3
2017-Jun-13 03:25N 39°17' E 007°57'510.1
2017-Jun-13 02:55N 39°16' E 008°04'4 9.9
2017-Jun-13 02:30N 39°15' E 008°09'610.1
2017-Jun-13 01:55N 39°14' E 008°16'4 9.5
2017-Jun-13 01:28N 39°11' E 008°21'4 8.2
2017-Jun-13 00:55N 39°07' E 008°22'0 0.0
2017-Jun-13 00:29N 39°07' E 008°22'0 0.0
2017-Jun-12 23:48N 39°07' E 008°22'0 0.0
2017-Jun-12 23:23N 39°07' E 008°22'0 0.0
2017-Jun-12 22:56N 39°07' E 008°22'0 0.0
2017-Jun-12 22:26N 39°07' E 008°22'0 0.0
2017-Jun-12 21:55N 39°07' E 008°22'0 0.0
2017-Jun-12 21:27N 39°07' E 008°22'0 0.0
2017-Jun-12 20:58N 39°07' E 008°22'1 1.3
2017-Jun-12 20:30N 39°07' E 008°22'810.1
2017-Jun-12 19:42N 39°02' E 008°14'310.2
2017-Jun-12 19:24N 39°00' E 008°11'610.5
2017-Jun-12 18:48N 38°56' E 008°04'4 7.2
2017-Jun-12 18:12N 38°54' E 007°60'0 1.2
2017-Jun-12 17:55N 38°54' E 007°59'3 2.2
2017-Jun-12 16:45N 38°52' E 008°02'8 2.4
2017-Jun-12 13:10N 38°47' E 008°10'0 0.2
2017-Jun-12 12:47N 38°47' E 008°10'4 2.5
2017-Jun-12 11:10N 38°45' E 008°14'1 2.5
2017-Jun-12 10:46N 38°44' E 008°16'4 0.9
2017-Jun-12 06:28N 38°48' E 008°16'4 2.7
2017-Jun-12 05:10N 38°51' E 008°13'1 2.7
2017-Jun-12 04:53N 38°51' E 008°12'2 2.7
2017-Jun-12 04:17N 38°52' E 008°11'1 3.5
2017-Jun-12 03:59N 38°53' E 008°10'3 5.7
2017-Jun-12 03:26N 38°56' E 008°12'4 6.8
2017-Jun-12 02:53N 38°59' E 008°14'3 6.8
2017-Jun-12 02:27N 39°01' E 008°16'3 7.2
2017-Jun-12 02:00N 39°04' E 008°19'4 7.2
2017-Jun-12 01:29N 39°07' E 008°22'  
2017-Jun-09 19:23N 39°07' E 008°22'3 7.7
2017-Jun-09 19:00N 39°10' E 008°22'510.2
2017-Jun-09 18:29N 39°14' E 008°17'810.2
2017-Jun-09 17:45N 39°20' E 008°12'310.5
2017-Jun-09 17:25N 39°23' E 008°09'510.5
2017-Jun-09 16:55N 39°27' E 008°05'5 5.4
2017-Jun-09 16:05N 39°31' E 008°03'0 1.4
2017-Jun-09 15:50N 39°31' E 008°03'1 2.8
2017-Jun-09 15:26N 39°32' E 008°03'1 2.6
2017-Jun-09 14:57N 39°33' E 008°02'2 2.5
2017-Jun-09 14:17N 39°34' E 008°00'2 2.4
2017-Jun-09 13:14N 39°33' E 007°57'1 2.5
2017-Jun-09 12:54N 39°32' E 007°56'1 2.4
2017-Jun-09 12:30N 39°31' E 007°56'0 0.2
2017-Jun-09 10:39N 39°31' E 007°55'1 1.4
2017-Jun-09 10:10N 39°32' E 007°56'2 2.6
2017-Jun-09 09:30N 39°31' E 007°54'2 2.5
2017-Jun-09 08:47N 39°31' E 007°52'1 2.5
2017-Jun-09 08:23N 39°30' E 007°51'1 2.5
2017-Jun-09 07:55N 39°29' E 007°50'1 2.5
2017-Jun-09 07:30N 39°28' E 007°50'1 2.5
2017-Jun-09 06:55N 39°26' E 007°50'1 2.5
2017-Jun-09 06:30N 39°25' E 007°50'1 2.5
2017-Jun-09 05:59N 39°24' E 007°50'1 2.5
2017-Jun-09 05:29N 39°23' E 007°50'3 2.5
2017-Jun-09 04:15N 39°20' E 007°49'2 5.9
2017-Jun-09 03:57N 39°18' E 007°50'510.0
2017-Jun-09 03:24N 39°17' E 007°57'510.0
2017-Jun-09 02:55N 39°16' E 008°03'610.2
2017-Jun-09 02:18N 39°14' E 008°11'310.4
2017-Jun-09 02:00N 39°14' E 008°15'6 9.4
2017-Jun-09 01:19N 39°10' E 008°22'3 3.0
2017-Jun-09 00:21N 39°07' E 008°22'0 0.0
2017-Jun-08 23:51N 39°07' E 008°22'0 0.0
2017-Jun-08 23:27N 39°07' E 008°22'0 0.0
2017-Jun-08 22:57N 39°07' E 008°22'0 0.0
2017-Jun-08 22:27N 39°07' E 008°22'0 0.0
2017-Jun-08 21:47N 39°07' E 008°22'0 0.0
2017-Jun-08 21:28N 39°07' E 008°22'0 0.0
2017-Jun-08 20:57N 39°07' E 008°22'1 1.5
2017-Jun-08 20:29N 39°07' E 008°22'5 9.7
2017-Jun-08 19:59N 39°03' E 008°20'510.1
2017-Jun-08 19:28N 38°57' E 008°19'5 9.9
2017-Jun-08 18:59N 38°53' E 008°19'11 8.9
2017-Jun-08 17:47N 38°42' E 008°18'1 1.4
2017-Jun-08 17:24N 38°42' E 008°19'1 2.2
2017-Jun-08 16:57N 38°42' E 008°18'2 2.4
2017-Jun-08 16:19N 38°43' E 008°16'1 2.5
2017-Jun-08 16:00N 38°43' E 008°15'1 2.4
2017-Jun-08 15:28N 38°44' E 008°14'1 2.4
2017-Jun-08 14:59N 38°44' E 008°12'1 2.4
2017-Jun-08 14:25N 38°45' E 008°11'2 2.4
2017-Jun-08 13:30N 38°46' E 008°09'3 2.4
2017-Jun-08 12:28N 38°49' E 008°08'1 2.5
2017-Jun-08 11:53N 38°50' E 008°07'1 2.5
2017-Jun-08 11:30N 38°51' E 008°07'1 1.7
2017-Jun-08 10:52N 38°51' E 008°05'0 1.0
2017-Jun-08 10:27N 38°52' E 008°05'0 0.6
2017-Jun-08 09:59N 38°52' E 008°06'1 2.5
2017-Jun-08 09:30N 38°51' E 008°07'1 2.5
2017-Jun-08 09:00N 38°50' E 008°07'1 2.4
2017-Jun-08 08:30N 38°48' E 008°08'1 2.5
2017-Jun-08 07:59N 38°47' E 008°08'1 2.5
2017-Jun-08 07:30N 38°47' E 008°10'1 2.5
2017-Jun-08 06:57N 38°46' E 008°11'1 2.4
2017-Jun-08 06:29N 38°45' E 008°12'2 2.4
2017-Jun-08 05:50N 38°44' E 008°14'1 2.4
2017-Jun-08 05:28N 38°44' E 008°15'1 2.4
2017-Jun-08 04:56N 38°43' E 008°16'1 2.5
2017-Jun-08 04:21N 38°43' E 008°18'1 3.6
2017-Jun-08 04:00N 38°42' E 008°19'4 7.2
2017-Jun-08 03:30N 38°46' E 008°19'4 8.9
2017-Jun-08 03:00N 38°50' E 008°19'4 9.0
2017-Jun-08 02:30N 38°54' E 008°19'5 9.2
2017-Jun-08 02:00N 38°59' E 008°19'5 9.4
2017-Jun-08 01:29N 39°04' E 008°20'4 8.1
2017-Jun-08 01:00N 39°07' E 008°23'0 0.4
2017-Jun-08 00:25N 39°07' E 008°22'0 0.0
2017-Jun-08 00:00N 39°07' E 008°22'0 0.0
2017-Jun-07 23:30N 39°07' E 008°22'0 0.0
2017-Jun-07 23:00N 39°07' E 008°22'0 0.0
2017-Jun-07 22:29N 39°07' E 008°22'0 0.0
2017-Jun-07 22:00N 39°07' E 008°22'0 0.0
2017-Jun-07 21:26N 39°07' E 008°22'0 0.9
2017-Jun-07 21:00N 39°07' E 008°22'4 8.2
2017-Jun-07 20:28N 39°03' E 008°20'4 9.3
2017-Jun-07 20:00N 38°59' E 008°22'5 9.2
2017-Jun-07 19:25N 38°55' E 008°26'4 9.4
2017-Jun-07 18:57N 38°52' E 008°30'1 0.2
2017-Jun-07 13:44N 38°51' E 008°31'1 2.6
2017-Jun-07 13:24N 38°52' E 008°30'1 2.5
2017-Jun-07 13:00N 38°53' E 008°29'2 3.3
2017-Jun-07 12:29N 38°54' E 008°28'1 2.3
2017-Jun-07 11:59N 38°53' E 008°28'2 2.4
2017-Jun-07 11:17N 38°51' E 008°29'1 2.4
2017-Jun-07 10:59N 38°51' E 008°29'1 2.4
2017-Jun-07 10:28N 38°50' E 008°30'3 0.6
2017-Jun-07 06:07N 38°48' E 008°32'1 2.6
2017-Jun-07 05:45N 38°48' E 008°32'1 2.6
2017-Jun-07 05:29N 38°49' E 008°31'1 2.5
2017-Jun-07 05:00N 38°50' E 008°30'1 2.5
2017-Jun-07 04:30N 38°51' E 008°29'1 2.5
2017-Jun-07 03:57N 38°52' E 008°28'1 2.5
2017-Jun-07 03:29N 38°53' E 008°28'5 8.5
2017-Jun-07 02:57N 38°56' E 008°24'4 6.9
2017-Jun-07 02:26N 38°59' E 008°21'3 6.9
2017-Jun-07 01:59N 39°02' E 008°20'4 7.0
2017-Jun-07 01:25N 39°06' E 008°21'2 3.5
2017-Jun-07 00:59N 39°07' E 008°22'0 0.0
2017-Jun-07 00:17N 39°07' E 008°22'0 0.0
2017-Jun-06 23:58N 39°07' E 008°22'0 0.0
2017-Jun-06 23:30N 39°07' E 008°22'0 0.0
2017-Jun-06 22:56N 39°07' E 008°22'0 0.0
2017-Jun-06 22:30N 39°07' E 008°22'0 0.0
2017-Jun-06 22:00N 39°07' E 008°22'0 0.0
2017-Jun-06 21:30N 39°07' E 008°22'0 0.0
2017-Jun-06 21:00N 39°07' E 008°22'0 0.2
2017-Jun-06 20:30N 39°07' E 008°23'4 7.1
2017-Jun-06 19:57N 39°04' E 008°20'5 9.5
2017-Jun-06 19:27N 38°59' E 008°19'5 9.3
2017-Jun-06 18:58N 38°55' E 008°18'5 8.9
2017-Jun-06 18:28N 38°50' E 008°18'5 8.9
2017-Jun-06 17:53N 38°45' E 008°18'3 7.2
2017-Jun-06 17:30N 38°42' E 008°18'2 1.3
2017-Jun-06 16:15N 38°43' E 008°16'1 2.4
2017-Jun-06 15:58N 38°44' E 008°15'1 2.4
2017-Jun-06 15:29N 38°44' E 008°14'1 2.4
2017-Jun-06 15:00N 38°45' E 008°13'1 2.5
2017-Jun-06 14:28N 38°45' E 008°11'2 2.5
2017-Jun-06 13:28N 38°47' E 008°09'1 2.5
2017-Jun-06 12:59N 38°48' E 008°08'1 2.4
2017-Jun-06 12:29N 38°49' E 008°07'1 2.4
2017-Jun-06 11:52N 38°50' E 008°07'1 2.6
2017-Jun-06 11:22N 38°52' E 008°06'1 2.1
2017-Jun-06 11:00N 38°51' E 008°05'1 1.1
2017-Jun-06 10:29N 38°52' E 008°05'1 1.5
2017-Jun-06 10:00N 38°52' E 008°06'1 2.4
2017-Jun-06 09:30N 38°51' E 008°07'1 2.4
2017-Jun-06 08:54N 38°49' E 008°07'1 2.4
2017-Jun-06 08:27N 38°48' E 008°08'1 2.4
2017-Jun-06 07:59N 38°47' E 008°09'1 2.4
2017-Jun-06 07:30N 38°47' E 008°10'  

Dump ship's entire track history